Wetterdaten: Donnerstag, 14.10.2010
Datum Zeit Temp. A. Feuchte A. Luftdruck Regen Wind Richtung Richtung Sonnenschein UV Solar Windben
14.10.2010 00:00 2,6 C 90 % 1016,5 hPa 0,0 mm 0,0 km/h (0 Bft) N 0 0 min 0 UV-I 0 W/m 0,0 km/h (0 Bft)
14.10.2010 00:10 2,6 C 90 % 1016,4 hPa 0,0 mm 0,0 km/h (0 Bft) N 0 0 min 0 UV-I 0 W/m 0,0 km/h (0 Bft)
14.10.2010 00:20 2,6 C 90 % 1016,4 hPa 0,0 mm 0,0 km/h (0 Bft) N 0 0 min 0 UV-I 0 W/m 0,0 km/h (0 Bft)
14.10.2010 00:30 2,4 C 90 % 1016,4 hPa 0,0 mm 0,0 km/h (0 Bft) N 0 0 min 0 UV-I 0 W/m 0,0 km/h (0 Bft)
14.10.2010 00:40 2,3 C 90 % 1016,5 hPa 0,0 mm 0,0 km/h (0 Bft) N 0 0 min 0 UV-I 0 W/m 0,0 km/h (0 Bft)
14.10.2010 00:50 2,2 C 90 % 1016,3 hPa 0,0 mm 0,0 km/h (0 Bft) N 0 0 min 0 UV-I 0 W/m 0,0 km/h (0 Bft)
14.10.2010 01:00 2,0 C 90 % 1016,2 hPa 0,0 mm 0,0 km/h (0 Bft) N 0 0 min 0 UV-I 0 W/m 0,0 km/h (0 Bft)
14.10.2010 01:10 1,9 C 90 % 1016,3 hPa 0,0 mm 0,0 km/h (0 Bft) N 0 0 min 0 UV-I 0 W/m 0,0 km/h (0 Bft)
14.10.2010 01:20 1,9 C 90 % 1016,2 hPa 0,0 mm 0,0 km/h (0 Bft) N 0 0 min 0 UV-I 0 W/m 0,0 km/h (0 Bft)
14.10.2010 01:30 1,8 C 91 % 1016,1 hPa 0,0 mm 0,0 km/h (0 Bft) N 0 0 min 0 UV-I 0 W/m 0,0 km/h (0 Bft)
14.10.2010 01:40 1,8 C 91 % 1016,2 hPa 0,0 mm 0,0 km/h (0 Bft) N 0 0 min 0 UV-I 0 W/m 0,0 km/h (0 Bft)
14.10.2010 01:50 1,7 C 90 % 1016,2 hPa 0,0 mm 0,0 km/h (0 Bft) N 0 0 min 0 UV-I 0 W/m 0,0 km/h (0 Bft)
14.10.2010 02:00 1,5 C 91 % 1016,2 hPa 0,0 mm 0,0 km/h (0 Bft) N 0 0 min 0 UV-I 0 W/m 0,0 km/h (0 Bft)
14.10.2010 02:10 1,4 C 91 % 1016,2 hPa 0,0 mm 0,0 km/h (0 Bft) N 0 0 min 0 UV-I 0 W/m 0,0 km/h (0 Bft)
14.10.2010 02:20 1,4 C 91 % 1016,2 hPa 0,0 mm 0,0 km/h (0 Bft) N 0 0 min 0 UV-I 0 W/m 0,0 km/h (0 Bft)
14.10.2010 02:30 1,4 C 91 % 1016,3 hPa 0,0 mm 0,0 km/h (0 Bft) N 0 0 min 0 UV-I 0 W/m 0,0 km/h (0 Bft)
14.10.2010 02:40 1,3 C 91 % 1016,3 hPa 0,0 mm 0,0 km/h (0 Bft) N 0 0 min 0 UV-I 0 W/m 0,0 km/h (0 Bft)
14.10.2010 02:50 1,4 C 91 % 1016,2 hPa 0,0 mm 0,0 km/h (0 Bft) N 0 0 min 0 UV-I 0 W/m 0,0 km/h (0 Bft)
14.10.2010 03:00 1,6 C 91 % 1016,2 hPa 0,0 mm 0,0 km/h (0 Bft) N 0 0 min 0 UV-I 0 W/m 0,0 km/h (0 Bft)
14.10.2010 03:10 1,6 C 91 % 1016,2 hPa 0,0 mm 0,0 km/h (0 Bft) N 0 0 min 0 UV-I 0 W/m 0,0 km/h (0 Bft)
14.10.2010 03:20 1,6 C 91 % 1016,2 hPa 0,0 mm 0,0 km/h (0 Bft) N 0 0 min 0 UV-I 0 W/m 0,0 km/h (0 Bft)
14.10.2010 03:30 1,5 C 91 % 1016,2 hPa 0,0 mm 0,0 km/h (0 Bft) N 0 0 min 0 UV-I 0 W/m 0,0 km/h (0 Bft)
14.10.2010 03:40 1,3 C 91 % 1016,1 hPa 0,0 mm 0,0 km/h (0 Bft) N 0 0 min 0 UV-I 0 W/m 0,0 km/h (0 Bft)
14.10.2010 03:50 1,0 C 91 % 1016,1 hPa 0,0 mm 0,0 km/h (0 Bft) N 0 0 min 0 UV-I 0 W/m 0,0 km/h (0 Bft)
14.10.2010 04:00 1,0 C 91 % 1016,0 hPa 0,0 mm 0,0 km/h (0 Bft) N 0 0 min 0 UV-I 0 W/m 0,0 km/h (0 Bft)
14.10.2010 04:10 0,8 C 91 % 1015,7 hPa 0,0 mm 0,0 km/h (0 Bft) N 0 0 min 0 UV-I 0 W/m 0,0 km/h (0 Bft)
14.10.2010 04:20 1,0 C 92 % 1015,6 hPa 0,0 mm 0,0 km/h (0 Bft) N 0 0 min 0 UV-I 0 W/m 0,0 km/h (0 Bft)
14.10.2010 04:30 1,1 C 91 % 1015,7 hPa 0,0 mm 0,0 km/h (0 Bft) N 0 0 min 0 UV-I 0 W/m 0,0 km/h (0 Bft)
14.10.2010 04:40 1,0 C 91 % 1015,3 hPa 0,0 mm 0,0 km/h (0 Bft) N 0 0 min 0 UV-I 0 W/m 0,0 km/h (0 Bft)
14.10.2010 04:50 0,9 C 91 % 1015,6 hPa 0,0 mm 0,0 km/h (0 Bft) N 0 0 min 0 UV-I 0 W/m 0,0 km/h (0 Bft)
14.10.2010 05:00 0,8 C 91 % 1015,7 hPa 0,0 mm 0,0 km/h (0 Bft) N 0 0 min 0 UV-I 0 W/m 0,0 km/h (0 Bft)
14.10.2010 05:10 0,8 C 91 % 1016,0 hPa 0,0 mm 0,0 km/h (0 Bft) O-NO 67 0 min 0 UV-I 0 W/m 3,2 km/h (1 Bft)
14.10.2010 05:20 0,8 C 91 % 1016,2 hPa 0,0 mm 0,0 km/h (0 Bft) N 0 0 min 0 UV-I 0 W/m 0,0 km/h (0 Bft)
14.10.2010 05:30 0,9 C 92 % 1016,2 hPa 0,0 mm 0,0 km/h (0 Bft) O-NO 67 0 min 0 UV-I 0 W/m 1,6 km/h (1 Bft)
14.10.2010 05:40 1,1 C 92 % 1016,2 hPa 0,0 mm 0,0 km/h (0 Bft) N 0 0 min 0 UV-I 0 W/m 0,0 km/h (0 Bft)
14.10.2010 05:50 1,2 C 92 % 1016,0 hPa 0,0 mm 0,0 km/h (0 Bft) O-NO 67 0 min 0 UV-I 0 W/m 1,6 km/h (1 Bft)
14.10.2010 06:00 1,3 C 92 % 1015,8 hPa 0,0 mm 0,0 km/h (0 Bft) SO 135 0 min 0 UV-I 0 W/m 3,2 km/h (1 Bft)
14.10.2010 06:10 1,3 C 92 % 1015,8 hPa 0,0 mm 0,0 km/h (0 Bft) S 180 0 min 0 UV-I 0 W/m 3,2 km/h (1 Bft)
14.10.2010 06:20 1,4 C 92 % 1015,9 hPa 0,0 mm 0,0 km/h (0 Bft) S 180 0 min 0 UV-I 0 W/m 1,6 km/h (1 Bft)
14.10.2010 06:30 1,3 C 92 % 1015,8 hPa 0,0 mm 0,0 km/h (0 Bft) S 180 0 min 0 UV-I 0 W/m 1,6 km/h (1 Bft)
14.10.2010 06:40 1,1 C 92 % 1015,8 hPa 0,0 mm 0,0 km/h (0 Bft) N 0 0 min 0 UV-I 0 W/m 0,0 km/h (0 Bft)
14.10.2010 06:50 0,9 C 92 % 1015,8 hPa 0,0 mm 0,0 km/h (0 Bft) N 0 0 min 0 UV-I 0 W/m 0,0 km/h (0 Bft)
14.10.2010 07:00 0,9 C 92 % 1015,7 hPa 0,0 mm 0,0 km/h (0 Bft) N 0 0 min 0 UV-I 0 W/m 0,0 km/h (0 Bft)
14.10.2010 07:10 1,0 C 92 % 1015,7 hPa 0,0 mm 0,0 km/h (0 Bft) N 0 0 min 0 UV-I 0 W/m 0,0 km/h (0 Bft)
14.10.2010 07:20 1,1 C 92 % 1015,7 hPa 0,0 mm 0,0 km/h (0 Bft) N 0 0 min 0 UV-I 0 W/m 0,0 km/h (0 Bft)
14.10.2010 07:30 1,2 C 92 % 1016,0 hPa 0,0 mm 0,0 km/h (0 Bft) S-SW 202 0 min 0 UV-I 0 W/m 1,6 km/h (1 Bft)
14.10.2010 07:40 1,5 C 92 % 1015,8 hPa 0,0 mm 0,0 km/h (0 Bft) N 0 0 min 0 UV-I 0 W/m 0,0 km/h (0 Bft)
14.10.2010 07:50 1,6 C 92 % 1016,0 hPa 0,0 mm 0,0 km/h (0 Bft) N 0 0 min 0 UV-I 0 W/m 0,0 km/h (0 Bft)
14.10.2010 08:00 1,7 C 92 % 1016,1 hPa 0,0 mm 0,0 km/h (0 Bft) S-SW 193 0 min 0 UV-I 1 W/m 0,0 km/h (0 Bft)
14.10.2010 08:10 1,7 C 92 % 1016,1 hPa 0,0 mm 0,0 km/h (0 Bft) N 0 0 min 0 UV-I 9 W/m 0,0 km/h (0 Bft)
14.10.2010 08:20 1,8 C 92 % 1016,0 hPa 0,0 mm 0,0 km/h (0 Bft) N 0 0 min 0 UV-I 16 W/m 0,0 km/h (0 Bft)
14.10.2010 08:30 1,9 C 92 % 1016,2 hPa 0,0 mm 0,0 km/h (0 Bft) N 0 0 min 0 UV-I 21 W/m 0,0 km/h (0 Bft)
14.10.2010 08:40 2,1 C 92 % 1016,3 hPa 0,0 mm 0,0 km/h (0 Bft) N 0 0 min 0 UV-I 33 W/m 0,0 km/h (0 Bft)
14.10.2010 08:50 2,2 C 92 % 1016,3 hPa 0,0 mm 0,0 km/h (0 Bft) S-SW 202 0 min 0 UV-I 56 W/m 1,6 km/h (1 Bft)
14.10.2010 09:00 2,2 C 92 % 1016,3 hPa 0,0 mm 0,0 km/h (0 Bft) S-SW 202 0 min 0 UV-I 42 W/m 1,6 km/h (1 Bft)
14.10.2010 09:10 2,4 C 93 % 1016,5 hPa 0,0 mm 0,0 km/h (0 Bft) S-SW 202 0 min 0 UV-I 46 W/m 1,6 km/h (1 Bft)
14.10.2010 09:20 2,4 C 93 % 1016,6 hPa 0,0 mm 0,0 km/h (0 Bft) S-SW 202 0 min 0 UV-I 86 W/m 1,6 km/h (1 Bft)
14.10.2010 09:30 2,7 C 93 % 1016,8 hPa 0,0 mm 0,0 km/h (0 Bft) N 0 0 min 0 UV-I 95 W/m 0,0 km/h (0 Bft)
14.10.2010 09:40 2,7 C 93 % 1016,8 hPa 0,0 mm 0,0 km/h (0 Bft) S-SW 202 0 min 0 UV-I 72 W/m 1,6 km/h (1 Bft)
14.10.2010 09:50 2,8 C 93 % 1016,8 hPa 0,0 mm 0,0 km/h (0 Bft) S-SW 202 10 min 1 UV-I 186 W/m 1,6 km/h (1 Bft)
14.10.2010 10:00 3,1 C 93 % 1016,7 hPa 0,0 mm 0,0 km/h (0 Bft) S-SW 202 0 min 1 UV-I 130 W/m 1,6 km/h (1 Bft)
14.10.2010 10:10 3,2 C 93 % 1016,7 hPa 0,0 mm 0,0 km/h (0 Bft) S-SW 202 0 min 1 UV-I 174 W/m 1,6 km/h (1 Bft)
14.10.2010 10:20 3,4 C 93 % 1016,6 hPa 0,0 mm 0,0 km/h (0 Bft) S-SW 202 10 min 1 UV-I 204 W/m 1,6 km/h (1 Bft)
14.10.2010 10:30 3,8 C 93 % 1016,6 hPa 0,0 mm 0,0 km/h (0 Bft) S-SW 202 10 min 1 UV-I 214 W/m 1,6 km/h (1 Bft)
14.10.2010 10:40 4,1 C 92 % 1016,5 hPa 0,0 mm 0,0 km/h (0 Bft) S-SW 202 0 min 1 UV-I 176 W/m 3,2 km/h (1 Bft)
14.10.2010 10:50 4,3 C 92 % 1016,5 hPa 0,0 mm 0,0 km/h (0 Bft) S-SW 202 0 min 1 UV-I 130 W/m 3,2 km/h (1 Bft)
14.10.2010 11:00 4,5 C 92 % 1016,5 hPa 0,0 mm 0,0 km/h (0 Bft) S-SW 202 0 min 1 UV-I 76 W/m 1,6 km/h (1 Bft)
14.10.2010 11:10 4,7 C 91 % 1016,4 hPa 0,0 mm 0,0 km/h (0 Bft) S-SW 202 0 min 1 UV-I 72 W/m 1,6 km/h (1 Bft)
14.10.2010 11:20 4,8 C 91 % 1016,8 hPa 0,0 mm 0,0 km/h (0 Bft) N 0 0 min 1 UV-I 76 W/m 0,0 km/h (0 Bft)
14.10.2010 11:30 4,8 C 91 % 1016,9 hPa 0,0 mm 0,0 km/h (0 Bft) S-SW 202 0 min 1 UV-I 84 W/m 3,2 km/h (1 Bft)
14.10.2010 11:40 5,0 C 90 % 1016,9 hPa 0,0 mm 0,0 km/h (0 Bft) S-SW 202 0 min 1 UV-I 97 W/m 1,6 km/h (1 Bft)
14.10.2010 11:50 5,2 C 90 % 1016,9 hPa 0,0 mm 0,0 km/h (0 Bft) S-SW 202 0 min 1 UV-I 102 W/m 1,6 km/h (1 Bft)
14.10.2010 12:00 5,4 C 89 % 1016,9 hPa 0,0 mm 0,0 km/h (0 Bft) N 0 0 min 1 UV-I 102 W/m 0,0 km/h (0 Bft)
14.10.2010 12:10 5,4 C 89 % 1016,9 hPa 0,0 mm 0,0 km/h (0 Bft) S-SW 202 0 min 1 UV-I 120 W/m 1,6 km/h (1 Bft)
14.10.2010 12:20 5,5 C 89 % 1016,9 hPa 0,0 mm 0,0 km/h (0 Bft) S-SW 202 0 min 1 UV-I 135 W/m 3,2 km/h (1 Bft)
14.10.2010 12:30 5,7 C 88 % 1016,9 hPa 0,0 mm 0,0 km/h (0 Bft) S-SW 202 0 min 1 UV-I 109 W/m 1,6 km/h (1 Bft)
14.10.2010 12:40 5,9 C 88 % 1017,0 hPa 0,0 mm 0,0 km/h (0 Bft) S-SW 202 0 min 1 UV-I 109 W/m 1,6 km/h (1 Bft)
14.10.2010 12:50 6,0 C 88 % 1016,9 hPa 0,0 mm 0,0 km/h (0 Bft) S-SW 202 0 min 1 UV-I 132 W/m 1,6 km/h (1 Bft)
14.10.2010 13:00 6,2 C 87 % 1017,1 hPa 0,0 mm 0,0 km/h (0 Bft) S-SW 202 0 min 1 UV-I 125 W/m 3,2 km/h (1 Bft)
14.10.2010 13:10 6,4 C 87 % 1016,9 hPa 0,0 mm 0,0 km/h (0 Bft) S-SW 202 0 min 1 UV-I 137 W/m 3,2 km/h (1 Bft)
14.10.2010 13:20 6,6 C 86 % 1016,9 hPa 0,0 mm 0,0 km/h (0 Bft) S-SW 202 0 min 1 UV-I 144 W/m 3,2 km/h (1 Bft)
14.10.2010 13:30 6,7 C 85 % 1016,9 hPa 0,0 mm 0,0 km/h (0 Bft) S-SW 202 0 min 1 UV-I 165 W/m 4,8 km/h (1 Bft)
14.10.2010 13:40 6,8 C 85 % 1016,7 hPa 0,0 mm 0,0 km/h (0 Bft) S-SW 202 0 min 1 UV-I 162 W/m 4,8 km/h (1 Bft)
14.10.2010 13:50 6,9 C 84 % 1016,8 hPa 0,0 mm 0,0 km/h (0 Bft) S-SW 202 0 min 1 UV-I 158 W/m 6,4 km/h (2 Bft)
14.10.2010 14:00 7,1 C 84 % 1016,7 hPa 0,0 mm 1,6 km/h (1 Bft) SW 225 0 min 1 UV-I 156 W/m 6,4 km/h (2 Bft)
14.10.2010 14:10 7,2 C 84 % 1016,8 hPa 0,0 mm 0,0 km/h (0 Bft) SW 225 0 min 1 UV-I 146 W/m 3,2 km/h (1 Bft)
14.10.2010 14:20 7,4 C 84 % 1016,5 hPa 0,0 mm 0,0 km/h (0 Bft) SW 225 0 min 1 UV-I 162 W/m 4,8 km/h (1 Bft)
14.10.2010 14:30 7,6 C 84 % 1016,4 hPa 0,0 mm 0,0 km/h (0 Bft) SW 225 0 min 1 UV-I 181 W/m 4,8 km/h (1 Bft)
14.10.2010 14:40 7,9 C 83 % 1016,4 hPa 0,0 mm 1,6 km/h (1 Bft) SW 225 0 min 2 UV-I 232 W/m 6,4 km/h (2 Bft)
14.10.2010 14:50 8,2 C 82 % 1016,3 hPa 0,0 mm 1,6 km/h (1 Bft) W-SW 247 0 min 1 UV-I 204 W/m 9,7 km/h (2 Bft)
14.10.2010 15:00 8,3 C 83 % 1016,3 hPa 0,0 mm 0,0 km/h (0 Bft) W 270 0 min 1 UV-I 163 W/m 4,8 km/h (1 Bft)
14.10.2010 15:10 8,7 C 82 % 1016,2 hPa 0,0 mm 0,0 km/h (0 Bft) W 270 0 min 1 UV-I 190 W/m 6,4 km/h (2 Bft)
14.10.2010 15:20 8,8 C 81 % 1016,3 hPa 0,0 mm 1,6 km/h (1 Bft) W-NW 292 0 min 1 UV-I 220 W/m 8,0 km/h (2 Bft)
14.10.2010 15:30 8,9 C 81 % 1016,3 hPa 0,0 mm 0,0 km/h (0 Bft) W-NW 292 0 min 1 UV-I 130 W/m 4,8 km/h (1 Bft)
14.10.2010 15:40 8,9 C 81 % 1016,4 hPa 0,0 mm 1,6 km/h (1 Bft) W-NW 292 0 min 1 UV-I 91 W/m 4,8 km/h (1 Bft)
14.10.2010 15:50 8,8 C 82 % 1016,5 hPa 0,0 mm 0,0 km/h (0 Bft) W-NW 292 0 min 1 UV-I 72 W/m 4,8 km/h (1 Bft)
14.10.2010 16:00 8,8 C 83 % 1016,4 hPa 0,0 mm 1,0 km/h (0 Bft) W-NW 302 0 min 1 UV-I 73 W/m 3,2 km/h (1 Bft)
14.10.2010 16:10 8,8 C 83 % 1016,4 hPa 0,0 mm 0,0 km/h (0 Bft) W-NW 292 0 min 1 UV-I 58 W/m 3,2 km/h (1 Bft)
14.10.2010 16:20 8,7 C 84 % 1016,0 hPa 0,0 mm 0,0 km/h (0 Bft) W-NW 292 0 min 0 UV-I 39 W/m 3,2 km/h (1 Bft)
14.10.2010 16:30 8,8 C 84 % 1016,2 hPa 0,0 mm 0,0 km/h (0 Bft) W-NW 292 0 min 0 UV-I 44 W/m 3,2 km/h (1 Bft)
14.10.2010 16:40 8,7 C 85 % 1016,2 hPa 0,0 mm 0,0 km/h (0 Bft) W-NW 292 0 min 0 UV-I 37 W/m 6,4 km/h (2 Bft)
14.10.2010 16:50 8,7 C 85 % 1016,4 hPa 0,0 mm 1,6 km/h (1 Bft) W-NW 292 0 min 0 UV-I 33 W/m 4,8 km/h (1 Bft)
14.10.2010 17:00 8,8 C 85 % 1016,2 hPa 0,0 mm 0,0 km/h (0 Bft) W-NW 292 0 min 0 UV-I 19 W/m 4,8 km/h (1 Bft)
14.10.2010 17:10 8,8 C 86 % 1016,3 hPa 0,0 mm 0,0 km/h (0 Bft) W-NW 292 0 min 0 UV-I 23 W/m 4,8 km/h (1 Bft)
14.10.2010 17:20 8,8 C 86 % 1016,3 hPa 0,0 mm 1,6 km/h (1 Bft) W-NW 292 0 min 0 UV-I 30 W/m 4,8 km/h (1 Bft)
14.10.2010 17:30 8,8 C 87 % 1016,2 hPa 0,0 mm 0,0 km/h (0 Bft) W-NW 292 0 min 0 UV-I 26 W/m 4,8 km/h (1 Bft)
14.10.2010 17:40 8,8 C 87 % 1016,2 hPa 0,0 mm 0,0 km/h (0 Bft) W-NW 292 0 min 0 UV-I 14 W/m 6,4 km/h (2 Bft)
14.10.2010 17:50 8,8 C 87 % 1016,2 hPa 0,0 mm 0,0 km/h (0 Bft) W-NW 292 0 min 0 UV-I 11 W/m 1,6 km/h (1 Bft)
14.10.2010 18:00 8,8 C 88 % 1016,2 hPa 0,0 mm 0,0 km/h (0 Bft) W-NW 292 0 min 0 UV-I 11 W/m 6,4 km/h (2 Bft)
14.10.2010 18:10 8,8 C 89 % 1016,3 hPa 0,0 mm 0,0 km/h (0 Bft) W-NW 292 0 min 0 UV-I 9 W/m 4,8 km/h (1 Bft)
14.10.2010 18:20 8,8 C 89 % 1016,3 hPa 0,0 mm 1,6 km/h (1 Bft) W-NW 292 0 min 0 UV-I 7 W/m 4,8 km/h (1 Bft)
14.10.2010 18:30 8,7 C 89 % 1016,2 hPa 0,0 mm 0,0 km/h (0 Bft) W-NW 292 0 min 0 UV-I 0 W/m 1,6 km/h (1 Bft)
14.10.2010 18:40 8,7 C 90 % 1016,2 hPa 0,0 mm 0,0 km/h (0 Bft) W-NW 292 0 min 0 UV-I 0 W/m 4,8 km/h (1 Bft)
14.10.2010 18:50 8,7 C 90 % 1016,3 hPa 0,0 mm 0,0 km/h (0 Bft) W-NW 292 0 min 0 UV-I 0 W/m 4,8 km/h (1 Bft)
14.10.2010 19:00 8,7 C 90 % 1016,1 hPa 0,0 mm 0,0 km/h (0 Bft) W-NW 292 0 min 0 UV-I 0 W/m 4,8 km/h (1 Bft)
14.10.2010 19:10 8,7 C 90 % 1016,3 hPa 0,0 mm 0,0 km/h (0 Bft) W-NW 292 0 min 0 UV-I 0 W/m 3,2 km/h (1 Bft)
14.10.2010 19:20 8,6 C 91 % 1016,3 hPa 0,0 mm 0,0 km/h (0 Bft) W-NW 292 0 min 0 UV-I 0 W/m 4,8 km/h (1 Bft)
14.10.2010 19:30 8,6 C 91 % 1016,4 hPa 0,0 mm 0,0 km/h (0 Bft) W-NW 292 0 min 0 UV-I 0 W/m 3,2 km/h (1 Bft)
14.10.2010 19:40 8,6 C 91 % 1016,3 hPa 0,0 mm 0,0 km/h (0 Bft) W-NW 292 0 min 0 UV-I 0 W/m 4,8 km/h (1 Bft)
14.10.2010 19:50 8,6 C 91 % 1016,1 hPa 0,0 mm 1,6 km/h (1 Bft) W-NW 292 0 min 0 UV-I 0 W/m 6,4 km/h (2 Bft)
14.10.2010 20:00 8,6 C 91 % 1016,3 hPa 0,0 mm 0,0 km/h (0 Bft) W-NW 292 0 min 0 UV-I 0 W/m 6,4 km/h (2 Bft)
14.10.2010 20:10 8,6 C 91 % 1016,1 hPa 0,0 mm 1,6 km/h (1 Bft) W-NW 292 0 min 0 UV-I 0 W/m 6,4 km/h (2 Bft)
14.10.2010 20:20 8,7 C 92 % 1015,9 hPa 0,3 mm 1,6 km/h (1 Bft) W-NW 292 0 min 0 UV-I 0 W/m 8,0 km/h (2 Bft)
14.10.2010 20:30 8,7 C 92 % 1016,1 hPa 0,0 mm 1,6 km/h (1 Bft) W-NW 292 0 min 0 UV-I 0 W/m 8,0 km/h (2 Bft)
14.10.2010 20:40 8,8 C 92 % 1015,9 hPa 0,0 mm 1,6 km/h (1 Bft) W-NW 292 0 min 0 UV-I 0 W/m 6,4 km/h (2 Bft)
14.10.2010 20:50 8,8 C 92 % 1016,1 hPa 0,0 mm 0,0 km/h (0 Bft) W-NW 292 0 min 0 UV-I 0 W/m 4,8 km/h (1 Bft)
14.10.2010 21:00 8,9 C 92 % 1015,9 hPa 0,0 mm 1,6 km/h (1 Bft) W-NW 292 0 min 0 UV-I 0 W/m 6,4 km/h (2 Bft)
14.10.2010 21:10 8,9 C 92 % 1015,8 hPa 0,0 mm 1,6 km/h (1 Bft) W-NW 292 0 min 0 UV-I 0 W/m 6,4 km/h (2 Bft)
14.10.2010 21:20 9,0 C 92 % 1015,9 hPa 0,0 mm 1,6 km/h (1 Bft) W-NW 292 0 min 0 UV-I 0 W/m 6,4 km/h (2 Bft)
14.10.2010 21:30 9,0 C 92 % 1016,0 hPa 0,0 mm 1,6 km/h (1 Bft) W-NW 292 0 min 0 UV-I 0 W/m 6,4 km/h (2 Bft)
14.10.2010 21:40 9,0 C 92 % 1016,1 hPa 0,0 mm 1,1 km/h (1 Bft) W-NW 286 0 min 0 UV-I 0 W/m 4,8 km/h (1 Bft)
14.10.2010 21:50 9,1 C 92 % 1016,1 hPa 0,0 mm 1,6 km/h (1 Bft) W-NW 284 0 min 0 UV-I 0 W/m 8,0 km/h (2 Bft)
14.10.2010 22:00 9,1 C 92 % 1016,2 hPa 0,0 mm 0,9 km/h (0 Bft) W-NW 284 0 min 0 UV-I 0 W/m 6,4 km/h (2 Bft)
14.10.2010 22:10 9,1 C 92 % 1015,9 hPa 0,0 mm 1,8 km/h (1 Bft) W-NW 283 0 min 0 UV-I 0 W/m 8,0 km/h (2 Bft)
14.10.2010 22:20 9,1 C 92 % 1015,8 hPa 0,0 mm 2,2 km/h (1 Bft) W 276 0 min 0 UV-I 0 W/m 8,0 km/h (2 Bft)
14.10.2010 22:30 9,1 C 92 % 1015,8 hPa 0,0 mm 3,9 km/h (1 Bft) W 264 0 min 0 UV-I 0 W/m 11,3 km/h (2 Bft)
14.10.2010 22:40 9,1 C 93 % 1015,9 hPa 0,0 mm 2,6 km/h (1 Bft) W 262 0 min 0 UV-I 0 W/m 11,3 km/h (2 Bft)
14.10.2010 22:50 9,1 C 93 % 1016,0 hPa 0,0 mm 3,1 km/h (1 Bft) W 262 0 min 0 UV-I 0 W/m 8,0 km/h (2 Bft)
14.10.2010 23:00 9,2 C 93 % 1015,9 hPa 0,0 mm 1,2 km/h (1 Bft) W 260 0 min 0 UV-I 0 W/m 11,3 km/h (2 Bft)
14.10.2010 23:10 9,2 C 93 % 1015,9 hPa 0,0 mm 1,6 km/h (1 Bft) W 270 0 min 0 UV-I 0 W/m 8,0 km/h (2 Bft)
14.10.2010 23:20 9,3 C 93 % 1015,9 hPa 0,0 mm 1,6 km/h (1 Bft) W 270 0 min 0 UV-I 0 W/m 11,3 km/h (2 Bft)
14.10.2010 23:30 9,3 C 93 % 1015,8 hPa 0,0 mm 3,2 km/h (1 Bft) W 270 0 min 0 UV-I 0 W/m 8,0 km/h (2 Bft)
14.10.2010 23:40 9,3 C 93 % 1015,7 hPa 0,0 mm 3,2 km/h (1 Bft) W 270 0 min 0 UV-I 0 W/m 9,7 km/h (2 Bft)
14.10.2010 23:50 9,4 C 93 % 1015,7 hPa 0,0 mm 1,6 km/h (1 Bft) W 270 0 min 0 UV-I 0 W/m 8,0 km/h (2 Bft)
_ Min-Zeit 04:10 15:20 04:40 - 00:00 - - - - - 00:00
Minimum _ 0,8 C 81 % 1015,3 hPa - 0,0 km/h (0 Bft) - - - - - 0,0 km/h (0 Bft)
_ Max-Zeit 23:40 09:10 13:00 20:20 22:30 - - 09:50 14:40 14:40 22:30
Maximum _ 9,4 C 93 % 1017,1 hPa 0,3 mm 3,9 km/h
W (1 Bft)
- - 10 min 2 UV-I 232 W/m 11,3 km/h
W (2 Bft)
Durchschnitt _ 5,2 C 90 % 1016,2 hPa #0,3 mm 0,4 km/h (0 Bft) W-NW - #30 min. 1 UV-I 98 W/m 3,1 km/h (1 Bft)